createdAt,value
2019-03-06T00:01:11.627Z,74.50
2019-03-06T00:03:42.396Z,74.60
2019-03-06T00:06:16.681Z,74.70
2019-03-06T00:08:41.444Z,74.80
2019-03-06T00:11:10.027Z,74.90
2019-03-06T00:13:41.281Z,75.10
2019-03-06T00:16:09.793Z,75.20
2019-03-06T00:18:39.915Z,75.30
2019-03-06T00:21:09.271Z,75.40
2019-03-06T00:23:40.818Z,75.60
2019-03-06T00:26:09.270Z,75.80
2019-03-06T00:28:37.751Z,76.20
2019-03-06T00:31:08.233Z,76.50
2019-03-06T00:33:38.635Z,76.60
2019-03-06T00:36:09.203Z,77.00
2019-03-06T00:38:37.732Z,77.10
2019-03-06T00:41:13.360Z,77.40
2019-03-06T00:43:41.840Z,77.60
2019-03-06T00:46:10.374Z,77.80
2019-03-06T00:48:38.878Z,78.00
2019-03-06T00:51:07.425Z,78.20
2019-03-06T00:53:35.920Z,78.60
2019-03-06T00:56:05.022Z,78.70
2019-03-06T00:58:33.494Z,79.00
2019-03-06T01:01:03.775Z,79.20
2019-03-06T01:03:32.293Z,79.40
2019-03-06T01:06:02.616Z,79.50
2019-03-06T01:08:32.687Z,79.60
2019-03-06T01:11:02.584Z,79.90
2019-03-06T01:13:31.145Z,80.00
2019-03-06T01:16:02.224Z,80.10
2019-03-06T01:18:30.679Z,80.30
2019-03-06T01:21:01.538Z,80.30
2019-03-06T01:23:34.566Z,80.40
2019-03-06T01:26:03.166Z,80.50
2019-03-06T01:28:31.723Z,80.70
2019-03-06T01:31:00.175Z,80.90
2019-03-06T01:33:30.450Z,81.90
2019-03-06T01:36:05.616Z,81.10
2019-03-06T01:38:53.516Z,81.20
2019-03-06T01:41:26.529Z,81.40
2019-03-06T01:44:05.876Z,81.50
2019-03-06T01:46:36.273Z,81.60
2019-03-06T01:49:07.730Z,81.70
2019-03-06T01:51:36.803Z,81.80
2019-03-06T01:54:05.856Z,81.90
2019-03-06T01:56:34.310Z,82.00
2019-03-06T01:59:03.386Z,82.20
2019-03-06T02:01:31.955Z,82.30
2019-03-06T02:04:01.042Z,82.40
2019-03-06T02:06:30.342Z,82.50
2019-03-06T02:08:58.799Z,82.60
2019-03-06T02:11:28.609Z,82.60
2019-03-06T02:14:01.037Z,82.70
2019-03-06T02:16:29.866Z,82.70
2019-03-06T02:18:58.349Z,82.70
2019-03-06T02:21:26.872Z,82.80
2019-03-06T02:24:03.706Z,82.90
2019-03-06T02:26:33.060Z,83.30
2019-03-06T02:29:03.917Z,83.10
2019-03-06T02:31:32.441Z,83.10
2019-03-06T02:34:00.916Z,83.20
2019-03-06T02:36:29.456Z,83.20
2019-03-06T02:38:58.000Z,83.30
2019-03-06T02:41:30.965Z,83.50
2019-03-06T02:43:59.471Z,83.40
2019-03-06T02:46:29.158Z,83.50
2019-03-06T02:48:58.695Z,83.50
2019-03-06T02:51:28.728Z,83.50
2019-03-06T02:53:57.512Z,83.50
2019-03-06T02:56:28.947Z,83.60
2019-03-06T02:59:05.528Z,83.70
2019-03-06T03:01:38.523Z,83.80
2019-03-06T03:04:08.645Z,83.80
2019-03-06T03:06:38.868Z,83.90
2019-03-06T03:09:18.859Z,83.90
2019-03-06T03:11:51.148Z,83.90
2019-03-06T03:14:22.654Z,83.90
2019-03-06T03:16:54.276Z,83.90
2019-03-06T03:19:23.094Z,84.00
2019-03-06T03:21:51.663Z,84.20
2019-03-06T03:24:20.625Z,84.10
2019-03-06T03:26:49.104Z,84.20
2019-03-06T03:29:18.385Z,84.50
2019-03-06T03:31:46.954Z,84.20
2019-03-06T03:34:15.486Z,84.30
2019-03-06T03:36:45.475Z,84.40
2019-03-06T03:39:15.841Z,84.40
2019-03-06T03:41:44.492Z,84.40
2019-03-06T03:44:14.176Z,84.40
2019-03-06T03:46:44.922Z,84.50
2019-03-06T03:49:13.397Z,84.50
2019-03-06T03:51:52.468Z,84.50
2019-03-06T03:54:25.577Z,84.50
2019-03-06T03:56:58.927Z,84.50
2019-03-06T03:59:29.611Z,84.50
2019-03-06T04:01:59.778Z,84.60
2019-03-06T04:04:28.324Z,84.60
2019-03-06T04:06:56.940Z,84.70
2019-03-06T04:09:30.010Z,84.60
2019-03-06T04:12:03.976Z,84.70
2019-03-06T04:14:35.128Z,84.90
2019-03-06T04:17:06.297Z,84.70
2019-03-06T04:19:36.429Z,84.70
2019-03-06T04:22:05.893Z,84.70
2019-03-06T04:24:34.440Z,84.70
2019-03-06T04:27:03.008Z,84.70
2019-03-06T04:29:44.292Z,84.70
2019-03-06T04:32:12.849Z,84.70
2019-03-06T04:34:41.413Z,84.60
2019-03-06T04:37:09.929Z,84.70
2019-03-06T04:39:38.398Z,84.60
2019-03-06T04:42:06.953Z,84.60
2019-03-06T04:44:35.532Z,84.60
2019-03-06T04:47:04.896Z,84.60
2019-03-06T04:49:33.384Z,84.60
2019-03-06T04:52:01.980Z,84.60
2019-03-06T04:54:30.541Z,84.60
2019-03-06T04:56:59.003Z,84.50
2019-03-06T04:59:27.836Z,84.50
2019-03-06T05:02:01.208Z,84.50
2019-03-06T05:04:30.854Z,84.50
2019-03-06T05:07:00.959Z,84.40
2019-03-06T05:12:24.036Z,84.30
2019-03-06T05:14:57.042Z,84.40
2019-03-06T05:17:43.527Z,84.20
2019-03-06T05:20:13.775Z,84.30
2019-03-06T05:22:42.518Z,84.10
2019-03-06T05:25:12.516Z,84.10
2019-03-06T05:27:41.064Z,84.20
2019-03-06T05:30:16.382Z,84.20
2019-03-06T05:32:50.033Z,84.10
2019-03-06T05:35:42.040Z,84.20
2019-03-06T05:38:14.849Z,84.10
2019-03-06T05:40:44.248Z,84.00
2019-03-06T05:43:12.837Z,84.00
2019-03-06T05:45:45.734Z,84.10
2019-03-06T05:48:13.553Z,84.00
2019-03-06T05:50:45.392Z,83.90
2019-03-06T05:53:14.615Z,83.90
2019-03-06T05:55:43.671Z,83.80
2019-03-06T05:58:14.175Z,83.70
2019-03-06T06:00:44.976Z,83.60
2019-03-06T06:03:17.428Z,83.50
2019-03-06T06:05:50.715Z,83.70
2019-03-06T06:08:20.836Z,83.40
2019-03-06T06:10:55.863Z,83.30
2019-03-06T06:13:26.558Z,83.30
2019-03-06T06:15:56.477Z,83.90
2019-03-06T06:18:26.332Z,83.10
2019-03-06T06:21:00.019Z,82.90
2019-03-06T06:23:44.286Z,82.80
2019-03-06T06:26:13.275Z,82.70
2019-03-06T06:28:41.728Z,82.60
2019-03-06T06:31:10.235Z,82.50
2019-03-06T06:33:41.176Z,82.40
2019-03-06T06:36:11.122Z,82.20
2019-03-06T06:38:41.448Z,82.20
2019-03-06T06:41:11.030Z,82.10
2019-03-06T06:43:39.566Z,82.00
2019-03-06T06:46:08.099Z,82.00
2019-03-06T06:48:36.641Z,81.80
2019-03-06T06:51:19.999Z,81.80
2019-03-06T06:53:55.090Z,81.70
2019-03-06T06:56:26.679Z,81.60
2019-03-06T06:59:15.999Z,81.40
2019-03-06T07:02:06.826Z,81.30
2019-03-06T07:05:08.485Z,81.10
2019-03-06T07:07:47.610Z,81.10
2019-03-06T07:10:35.559Z,81.00
2019-03-06T07:13:24.870Z,80.70
2019-03-06T07:16:00.555Z,80.40
2019-03-06T07:18:30.820Z,80.30
2019-03-06T07:21:27.232Z,80.10
2019-03-06T07:24:00.665Z,80.00
2019-03-06T07:26:42.849Z,79.90
2019-03-06T07:29:28.190Z,79.70
2019-03-06T07:32:10.393Z,79.40
2019-03-06T07:34:49.450Z,79.20
2019-03-06T07:37:28.427Z,79.00
2019-03-06T07:39:51.963Z,78.90
2019-03-06T07:42:25.415Z,78.70
2019-03-06T07:45:25.427Z,78.60
2019-03-06T07:47:55.609Z,78.30
2019-03-06T07:50:31.873Z,78.20
2019-03-06T07:53:38.704Z,78.20
2019-03-06T07:56:11.844Z,77.90
2019-03-06T07:58:54.125Z,77.30
2019-03-06T08:01:29.292Z,77.30
2019-03-06T08:04:03.779Z,77.00
2019-03-06T08:06:35.002Z,76.80
2019-03-06T08:09:04.190Z,76.60
2019-03-06T08:11:38.363Z,76.50
2019-03-06T08:14:11.045Z,76.10
2019-03-06T08:16:52.682Z,76.00
2019-03-06T08:19:22.799Z,75.70
2019-03-06T08:22:02.387Z,75.60
2019-03-06T08:24:33.720Z,75.50
2019-03-06T08:27:02.250Z,75.50
2019-03-06T08:29:30.694Z,75.20
2019-03-06T08:31:59.451Z,74.90
2019-03-06T08:34:27.917Z,74.70
2019-03-06T08:36:57.275Z,75.30
2019-03-06T08:39:25.768Z,74.10
2019-03-06T08:41:54.533Z,73.90
2019-03-06T08:44:23.069Z,73.40
2019-03-06T08:46:53.343Z,73.10
2019-03-06T08:49:30.064Z,73.00
2019-03-06T08:52:09.269Z,72.60
2019-03-06T08:54:42.199Z,72.30
2019-03-06T08:57:18.154Z,72.00
2019-03-06T08:59:52.600Z,71.60
2019-03-06T09:02:34.587Z,71.40
2019-03-06T09:05:04.828Z,70.60
2019-03-06T09:07:37.707Z,70.20
2019-03-06T09:10:21.855Z,69.90
2019-03-06T09:12:55.040Z,69.40
2019-03-06T09:15:42.010Z,69.00
2019-03-06T09:18:17.958Z,68.50
2019-03-06T09:21:04.149Z,67.70
2019-03-06T09:23:52.156Z,67.50
2019-03-06T09:26:25.680Z,67.00
2019-03-06T09:29:04.642Z,67.00
2019-03-06T09:31:34.820Z,67.00
2019-03-06T09:34:04.934Z,66.80
2019-03-06T09:36:36.624Z,66.40
2019-03-06T09:39:12.772Z,66.30
2019-03-06T09:41:45.448Z,65.90
2019-03-06T09:44:18.403Z,66.10
2019-03-06T09:47:00.573Z,66.20
2019-03-06T09:49:37.775Z,66.40
2019-03-06T09:52:11.077Z,66.20
2019-03-06T09:54:42.786Z,66.30
2019-03-06T09:57:20.235Z,66.50
2019-03-06T10:00:02.655Z,67.00
2019-03-06T10:02:45.002Z,66.80
2019-03-06T10:05:21.103Z,66.90
2019-03-06T10:07:57.530Z,67.00
2019-03-06T10:10:27.634Z,66.80
2019-03-06T10:13:06.930Z,66.90
2019-03-06T10:15:46.049Z,66.80
2019-03-06T10:18:32.937Z,66.60
2019-03-06T10:21:01.476Z,66.40
2019-03-06T10:23:29.937Z,66.20
2019-03-06T10:25:58.884Z,66.20
2019-03-06T10:28:29.628Z,65.90
2019-03-06T10:31:02.344Z,65.60
2019-03-06T10:33:29.604Z,65.10
2019-03-06T10:36:00.645Z,65.30
2019-03-06T10:38:31.224Z,64.70
2019-03-06T10:40:59.839Z,64.50
2019-03-06T10:43:28.615Z,64.50
2019-03-06T10:45:57.177Z,64.30
2019-03-06T10:48:25.718Z,63.40
2019-03-06T10:51:00.285Z,63.30
2019-03-06T10:53:28.893Z,63.30
2019-03-06T10:55:57.553Z,62.90
2019-03-06T10:58:26.111Z,63.00
2019-03-06T11:00:55.411Z,62.90
2019-03-06T11:03:26.207Z,62.80
2019-03-06T11:05:56.597Z,62.70
2019-03-06T11:08:26.299Z,62.10
2019-03-06T11:10:55.186Z,61.70
2019-03-06T11:13:26.299Z,61.50
2019-03-06T11:18:25.211Z,61.10
2019-03-06T11:18:55.919Z,61.40
2019-03-06T11:20:53.911Z,60.90
2019-03-06T11:23:22.538Z,60.60
2019-03-06T11:25:51.131Z,60.40
2019-03-06T11:28:19.825Z,60.00
2019-03-06T11:30:54.027Z,59.90
2019-03-06T11:33:24.513Z,59.40
2019-03-06T11:35:57.866Z,59.20
2019-03-06T11:38:27.737Z,59.20
2019-03-06T11:40:58.904Z,59.20
2019-03-06T11:43:30.471Z,59.00
2019-03-06T11:46:01.922Z,58.90
2019-03-06T11:48:30.784Z,58.80
2019-03-06T11:51:00.896Z,58.80
2019-03-06T11:53:32.912Z,58.80
2019-03-06T11:56:01.443Z,58.70
2019-03-06T11:58:29.986Z,58.70
2019-03-06T12:00:59.996Z,58.90
2019-03-06T12:03:28.725Z,59.20
2019-03-06T12:05:58.145Z,59.30
2019-03-06T12:08:28.300Z,59.00
2019-03-06T12:10:56.997Z,58.70
2019-03-06T12:13:26.730Z,59.00
2019-03-06T12:15:55.312Z,59.00
2019-03-06T12:18:25.744Z,58.70
2019-03-06T12:20:54.723Z,58.90
2019-03-06T12:23:23.401Z,59.00
2019-03-06T12:25:52.231Z,59.00
2019-03-06T12:28:23.587Z,58.90
2019-03-06T12:30:52.304Z,59.30
2019-03-06T12:33:23.700Z,59.10
2019-03-06T12:35:53.709Z,59.00
2019-03-06T12:38:23.059Z,59.10
2019-03-06T12:40:51.655Z,58.90
2019-03-06T12:43:22.694Z,59.20
2019-03-06T12:46:12.143Z,59.40
2019-03-06T12:48:42.262Z,59.90
2019-03-06T12:51:10.791Z,60.20
2019-03-06T12:53:39.407Z,60.40
2019-03-06T12:56:09.542Z,60.40
2019-03-06T12:58:38.286Z,60.40
2019-03-06T13:01:07.602Z,60.40
2019-03-06T13:03:36.116Z,60.40
2019-03-06T13:06:04.832Z,60.60
2019-03-06T13:08:33.523Z,60.70
2019-03-06T13:11:02.305Z,60.80
2019-03-06T13:13:35.432Z,60.90
2019-03-06T13:16:02.650Z,61.00
2019-03-06T13:18:31.922Z,61.40
2019-03-06T13:21:03.237Z,61.70
2019-03-06T13:23:36.478Z,61.90
2019-03-06T13:26:10.386Z,61.90
2019-03-06T13:28:37.458Z,61.80
2019-03-06T13:31:07.932Z,61.90
2019-03-06T13:33:41.962Z,61.80
2019-03-06T13:36:13.679Z,61.70
2019-03-06T13:38:43.015Z,61.70
2019-03-06T13:41:11.483Z,61.90
2019-03-06T13:43:40.047Z,62.00
2019-03-06T13:46:08.651Z,62.20
2019-03-06T13:48:37.177Z,62.40
2019-03-06T13:51:07.734Z,62.30
2019-03-06T13:53:36.408Z,62.50
2019-03-06T13:56:06.872Z,62.60
2019-03-06T13:58:35.397Z,62.80
2019-03-06T14:01:09.979Z,63.10
2019-03-06T14:03:38.641Z,63.40
2019-03-06T14:06:07.251Z,63.60
2019-03-06T14:08:36.051Z,63.80
2019-03-06T14:11:05.179Z,64.10
2019-03-06T14:13:33.772Z,64.40
2019-03-06T14:16:04.949Z,64.30
2019-03-06T14:18:35.534Z,64.40
2019-03-06T14:21:04.695Z,64.60
2019-03-06T14:23:35.311Z,64.60
2019-03-06T14:26:05.388Z,64.20
2019-03-06T14:28:33.903Z,64.30
2019-03-06T14:31:04.051Z,64.20
2019-03-06T14:33:32.886Z,64.20
2019-03-06T14:36:01.491Z,64.20
2019-03-06T14:38:30.801Z,64.20
2019-03-06T14:41:04.267Z,64.30
2019-03-06T14:43:33.115Z,64.40
2019-03-06T14:46:01.629Z,64.40
2019-03-06T14:48:36.117Z,64.60
2019-03-06T14:51:04.796Z,64.80
2019-03-06T14:53:34.919Z,64.40
2019-03-06T14:56:08.077Z,64.50
2019-03-06T14:58:36.578Z,64.50
2019-03-06T15:01:06.167Z,64.50
2019-03-06T15:03:37.650Z,64.60
2019-03-06T15:06:12.608Z,64.50
2019-03-06T15:08:42.335Z,64.50
2019-03-06T15:11:12.456Z,64.40
2019-03-06T15:13:42.237Z,64.40
2019-03-06T15:16:12.707Z,64.40
2019-03-06T15:18:41.253Z,64.20
2019-03-06T15:21:10.800Z,64.00
2019-03-06T15:23:39.441Z,63.60
2019-03-06T15:26:09.945Z,63.20
2019-03-06T15:28:38.327Z,62.60
2019-03-06T15:31:07.016Z,62.30
2019-03-06T15:33:35.573Z,62.00
2019-03-06T15:36:10.209Z,61.70
2019-03-06T15:38:38.442Z,61.60
2019-03-06T15:41:09.076Z,61.00
2019-03-06T15:43:38.020Z,61.20
2019-03-06T15:46:08.940Z,60.90
2019-03-06T15:48:40.169Z,60.90
2019-03-06T15:51:12.011Z,60.70
2019-03-06T15:53:41.107Z,60.70
2019-03-06T15:56:10.843Z,60.70
2019-03-06T15:58:39.423Z,60.50
2019-03-06T16:01:11.092Z,60.40
2019-03-06T16:03:41.943Z,60.50
2019-03-06T16:06:20.076Z,60.40
2019-03-06T16:08:43.977Z,60.20
2019-03-06T16:11:13.630Z,60.40
2019-03-06T16:13:42.187Z,60.40
2019-03-06T16:16:11.574Z,60.40
2019-03-06T16:18:40.122Z,60.50
2019-03-06T16:21:09.468Z,60.60
2019-03-06T16:23:38.154Z,60.80
2019-03-06T16:26:06.787Z,60.80
2019-03-06T16:28:35.376Z,60.80
2019-03-06T16:31:04.889Z,60.70
2019-03-06T16:33:33.568Z,60.80
2019-03-06T16:36:06.110Z,60.70
2019-03-06T16:38:36.243Z,60.80
2019-03-06T16:41:10.020Z,60.80
2019-03-06T16:43:38.759Z,60.80
2019-03-06T16:46:07.441Z,60.90
2019-03-06T16:48:36.129Z,60.90
2019-03-06T16:51:05.195Z,61.00
2019-03-06T16:53:33.815Z,61.40
2019-03-06T16:56:02.430Z,61.70
2019-03-06T16:58:33.561Z,62.20
2019-03-06T17:01:05.974Z,62.50
2019-03-06T17:03:34.460Z,63.00
2019-03-06T17:06:03.321Z,63.50
2019-03-06T17:08:32.080Z,64.10
2019-03-06T17:11:01.783Z,64.40
2019-03-06T17:13:30.319Z,65.00
2019-03-06T17:15:59.146Z,65.40
2019-03-06T17:18:27.811Z,65.90
2019-03-06T17:20:57.956Z,66.00
2019-03-06T17:23:26.519Z,66.40
2019-03-06T17:25:55.377Z,66.60
2019-03-06T17:28:24.051Z,66.70
2019-03-06T17:30:53.846Z,66.90
2019-03-06T17:33:23.247Z,67.00
2019-03-06T17:35:51.799Z,67.20
2019-03-06T17:38:20.357Z,67.50
2019-03-06T17:40:49.034Z,67.60
2019-03-06T17:43:17.744Z,67.90
2019-03-06T17:45:46.415Z,68.20
2019-03-06T17:48:15.215Z,68.40
2019-03-06T17:50:43.993Z,68.80
2019-03-06T17:53:14.165Z,69.10
2019-03-06T17:55:43.022Z,69.30
2019-03-06T17:58:11.640Z,69.60
2019-03-06T18:00:44.904Z,70.00
2019-03-06T18:03:17.917Z,70.20
2019-03-06T18:05:48.170Z,70.70
2019-03-06T18:08:16.787Z,70.80
2019-03-06T18:10:45.523Z,71.00
2019-03-06T18:13:15.738Z,71.30
2019-03-06T18:15:44.570Z,71.30
2019-03-06T18:18:13.656Z,71.50
2019-03-06T18:20:42.336Z,71.60
2019-03-06T18:23:11.203Z,71.70
2019-03-06T18:25:39.920Z,71.70
2019-03-06T18:28:09.440Z,71.80
2019-03-06T18:30:38.087Z,71.80
2019-03-06T18:33:06.855Z,72.00
2019-03-06T18:35:35.537Z,72.10
2019-03-06T18:38:04.780Z,72.00
2019-03-06T18:40:33.503Z,72.10
2019-03-06T18:43:02.828Z,72.10
2019-03-06T18:45:31.452Z,72.30
2019-03-06T18:47:59.977Z,72.40
2019-03-06T18:50:28.784Z,72.40
2019-03-06T18:52:59.154Z,72.50
2019-03-06T18:55:28.736Z,72.50
2019-03-06T18:57:57.809Z,72.50
2019-03-06T19:00:28.260Z,72.60
2019-03-06T19:03:00.260Z,72.60
2019-03-06T19:05:28.954Z,72.70
2019-03-06T19:07:58.295Z,72.70
2019-03-06T19:10:27.440Z,72.70
2019-03-06T19:12:56.096Z,72.70
2019-03-06T19:15:26.111Z,73.00
2019-03-06T19:17:54.974Z,72.80
2019-03-06T19:20:25.186Z,72.90
2019-03-06T19:22:54.547Z,73.00
2019-03-06T19:25:23.249Z,73.00
2019-03-06T19:27:51.866Z,73.10
2019-03-06T19:30:23.547Z,73.20
2019-03-06T19:32:54.152Z,73.20
2019-03-06T19:35:26.352Z,73.20
2019-03-06T19:37:55.162Z,73.20
2019-03-06T19:40:24.134Z,73.20
2019-03-06T19:42:52.679Z,73.30
2019-03-06T19:45:25.732Z,73.50
2019-03-06T19:47:54.384Z,73.50
2019-03-06T19:50:26.036Z,73.60
2019-03-06T19:52:55.159Z,73.60
2019-03-06T19:55:24.469Z,73.70
2019-03-06T19:57:55.576Z,73.80
2019-03-06T20:00:26.454Z,73.90
2019-03-06T20:02:55.819Z,73.90
2019-03-06T20:05:26.561Z,74.00
2019-03-06T20:07:55.197Z,74.00
2019-03-06T20:10:24.036Z,74.10
2019-03-06T20:12:52.647Z,74.10
2019-03-06T20:15:21.482Z,74.20
2019-03-06T20:17:50.146Z,74.40
2019-03-06T20:20:19.616Z,74.40
2019-03-06T20:22:48.477Z,74.50
2019-03-06T20:25:19.220Z,74.70
2019-03-06T20:27:48.019Z,74.80
2019-03-06T20:30:27.414Z,74.90
2019-03-06T20:32:57.432Z,75.10
2019-03-06T20:35:31.711Z,75.30
2019-03-06T20:38:00.713Z,75.20
2019-03-06T20:40:29.327Z,75.30
2019-03-06T20:42:58.673Z,75.40
2019-03-06T20:45:27.297Z,75.50
2019-03-06T20:47:55.917Z,75.50
2019-03-06T20:50:24.781Z,75.70
2019-03-06T20:52:53.491Z,75.70
2019-03-06T20:55:25.055Z,75.90
2019-03-06T20:57:54.230Z,75.80
2019-03-06T21:00:30.241Z,75.90
2019-03-06T21:03:00.911Z,75.80
2019-03-06T21:05:29.937Z,75.90
2019-03-06T21:08:03.601Z,75.80
2019-03-06T21:10:33.157Z,76.10
2019-03-06T21:13:02.559Z,75.90
2019-03-06T21:15:31.543Z,76.10
2019-03-06T21:18:00.390Z,76.10
2019-03-06T21:20:42.951Z,76.10
2019-03-06T21:23:07.569Z,76.30
2019-03-06T21:25:36.205Z,76.40
2019-03-06T21:28:07.410Z,76.30
2019-03-06T21:30:37.920Z,76.50
2019-03-06T21:33:06.741Z,76.50
2019-03-06T21:35:35.298Z,76.50
2019-03-06T21:38:05.193Z,76.60
2019-03-06T21:40:33.923Z,76.70
2019-03-06T21:43:03.474Z,76.90
2019-03-06T21:45:33.828Z,76.90
2019-03-06T21:48:02.564Z,77.00
2019-03-06T21:50:31.111Z,77.10
2019-03-06T21:52:59.947Z,77.20
2019-03-06T21:55:29.966Z,77.20
2019-03-06T21:57:58.579Z,77.40
2019-03-06T22:00:27.118Z,77.40
2019-03-06T22:02:55.854Z,77.50
2019-03-06T22:05:25.023Z,77.50
2019-03-06T22:08:01.227Z,77.60
2019-03-06T22:10:30.217Z,77.80
2019-03-06T22:12:58.867Z,77.60
2019-03-06T22:15:27.864Z,77.70
2019-03-06T22:17:56.426Z,78.40
2019-03-06T22:20:25.878Z,77.90
2019-03-06T22:22:56.924Z,77.80
2019-03-06T22:25:26.746Z,78.00
2019-03-06T22:27:57.184Z,77.90
2019-03-06T22:30:25.786Z,78.00
2019-03-06T22:32:54.550Z,78.10
2019-03-06T22:35:23.291Z,78.20
2019-03-06T22:37:53.743Z,78.20
2019-03-06T22:40:22.608Z,78.20
2019-03-06T22:42:51.934Z,78.40
2019-03-06T22:45:21.563Z,78.30
2019-03-06T22:47:53.991Z,78.30
2019-03-06T22:50:22.568Z,78.60
2019-03-06T22:52:51.487Z,78.50
2019-03-06T22:55:21.002Z,78.60
2019-03-06T22:57:54.366Z,78.80
2019-03-06T23:00:35.750Z,79.00
2019-03-06T23:03:06.136Z,79.10
2019-03-06T23:05:38.519Z,79.20
2019-03-06T23:08:07.151Z,79.20
2019-03-06T23:10:35.869Z,79.10
2019-03-06T23:13:05.452Z,79.10
2019-03-06T23:15:35.839Z,79.80
2019-03-06T23:18:07.422Z,79.10
2019-03-06T23:20:38.180Z,79.30
2019-03-06T23:23:07.300Z,80.00
2019-03-06T23:25:37.772Z,79.10
2019-03-06T23:28:06.291Z,79.10
2019-03-06T23:30:36.266Z,79.20
2019-03-06T23:33:05.432Z,79.20
2019-03-06T23:35:34.278Z,79.10
2019-03-06T23:38:03.363Z,79.10
2019-03-06T23:40:32.321Z,79.10
2019-03-06T23:43:00.863Z,79.10
2019-03-06T23:45:29.375Z,79.00
2019-03-06T23:47:58.078Z,78.90
2019-03-06T23:50:28.147Z,78.90
2019-03-06T23:53:03.886Z,79.70
2019-03-06T23:55:34.028Z,78.80
2019-03-06T23:58:02.576Z,78.80
